sensor_id;sensor_type;location;lat;lon;timestamp;pressure;altitude;pressure_sealevel;temperature;humidity
19789;BME280;10054;59.332;18.244;2023-01-29T00:00:13;100645.33;;;0.26;100.00
19789;BME280;10054;59.332;18.244;2023-01-29T00:02:42;100643.97;;;0.29;100.00
19789;BME280;10054;59.332;18.244;2023-01-29T00:05:11;100644.42;;;0.28;100.00
19789;BME280;10054;59.332;18.244;2023-01-29T00:07:40;100640.02;;;0.32;100.00
19789;BME280;10054;59.332;18.244;2023-01-29T00:10:10;100643.21;;;0.65;100.00
19789;BME280;10054;59.332;18.244;2023-01-29T00:12:39;100645.20;;;0.74;100.00
19789;BME280;10054;59.332;18.244;2023-01-29T00:15:08;100648.41;;;0.65;100.00
19789;BME280;10054;59.332;18.244;2023-01-29T00:17:37;100660.69;;;0.57;100.00
19789;BME280;10054;59.332;18.244;2023-01-29T00:20:06;100653.92;;;0.50;100.00
19789;BME280;10054;59.332;18.244;2023-01-29T00:22:35;100656.16;;;0.46;100.00
19789;BME280;10054;59.332;18.244;2023-01-29T00:25:03;100653.19;;;0.44;100.00
19789;BME280;10054;59.332;18.244;2023-01-29T00:27:32;100654.96;;;0.42;100.00
19789;BME280;10054;59.332;18.244;2023-01-29T00:30:02;100655.41;;;0.41;100.00
19789;BME280;10054;59.332;18.244;2023-01-29T00:32:39;100649.33;;;0.42;100.00
19789;BME280;10054;59.332;18.244;2023-01-29T00:35:08;100655.81;;;0.42;100.00
19789;BME280;10054;59.332;18.244;2023-01-29T00:37:37;100649.77;;;0.42;100.00
19789;BME280;10054;59.332;18.244;2023-01-29T00:40:07;100657.11;;;0.42;100.00
19789;BME280;10054;59.332;18.244;2023-01-29T00:42:35;100655.81;;;0.42;100.00
19789;BME280;10054;59.332;18.244;2023-01-29T00:45:22;100655.78;;;0.44;100.00
19789;BME280;10054;59.332;18.244;2023-01-29T00:47:50;100659.20;;;0.46;100.00
19789;BME280;10054;59.332;18.244;2023-01-29T00:50:19;100655.78;;;0.44;100.00
19789;BME280;10054;59.332;18.244;2023-01-29T00:52:48;100654.92;;;0.43;100.00
19789;BME280;10054;59.332;18.244;2023-01-29T00:55:18;100659.27;;;0.43;100.00
19789;BME280;10054;59.332;18.244;2023-01-29T00:57:46;100658.76;;;0.46;100.00
19789;BME280;10054;59.332;18.244;2023-01-29T01:00:17;100653.16;;;0.84;100.00
19789;BME280;10054;59.332;18.244;2023-01-29T01:02:46;100657.88;;;0.86;100.00
19789;BME280;10054;59.332;18.244;2023-01-29T01:05:33;100652.55;;;0.74;100.00
19789;BME280;10054;59.332;18.244;2023-01-29T01:08:03;100651.92;;;0.63;100.00
19789;BME280;10054;59.332;18.244;2023-01-29T01:10:34;100649.08;;;0.54;100.00
19789;BME280;10054;59.332;18.244;2023-01-29T01:13:05;100641.48;;;0.45;100.00
19789;BME280;10054;59.332;18.244;2023-01-29T01:15:36;100646.73;;;0.42;100.00
19789;BME280;10054;59.332;18.244;2023-01-29T01:18:05;100640.31;;;0.39;100.00
19789;BME280;10054;59.332;18.244;2023-01-29T01:20:34;100654.17;;;0.38;100.00
19789;BME280;10054;59.332;18.244;2023-01-29T01:23:03;100649.89;;;0.36;100.00
19789;BME280;10054;59.332;18.244;2023-01-29T01:25:32;100645.15;;;0.35;100.00
19789;BME280;10054;59.332;18.244;2023-01-29T01:28:01;100644.70;;;0.36;100.00
19789;BME280;10054;59.332;18.244;2023-01-29T01:30:29;100648.59;;;0.36;100.00
19789;BME280;10054;59.332;18.244;2023-01-29T01:33:00;100636.48;;;0.36;100.00
19789;BME280;10054;59.332;18.244;2023-01-29T01:35:30;100632.59;;;0.36;100.00
19789;BME280;10054;59.332;18.244;2023-01-29T01:37:59;100626.55;;;0.36;100.00
19789;BME280;10054;59.332;18.244;2023-01-29T01:40:27;100616.61;;;0.35;100.00
19789;BME280;10054;59.332;18.244;2023-01-29T01:42:58;100612.72;;;0.35;100.00
19789;BME280;10054;59.332;18.244;2023-01-29T01:45:37;100615.34;;;0.33;100.00
19789;BME280;10054;59.332;18.244;2023-01-29T01:48:18;100607.39;;;0.41;100.00
19789;BME280;10054;59.332;18.244;2023-01-29T01:50:58;100616.02;;;0.80;100.00
19789;BME280;10054;59.332;18.244;2023-01-29T01:53:39;100610.83;;;0.80;100.00
19789;BME280;10054;59.332;18.244;2023-01-29T01:56:20;100603.42;;;0.65;100.00
19789;BME280;10054;59.332;18.244;2023-01-29T01:58:54;100605.05;;;0.50;100.00
19789;BME280;10054;59.332;18.244;2023-01-29T02:01:19;100600.50;;;0.40;100.00
19789;BME280;10054;59.332;18.244;2023-01-29T02:04:05;100589.87;;;0.31;100.00
19789;BME280;10054;59.332;18.244;2023-01-29T02:06:48;100584.36;;;0.26;100.00
19789;BME280;10054;59.332;18.244;2023-01-29T02:09:45;100573.64;;;0.22;100.00
19789;BME280;10054;59.332;18.244;2023-01-29T02:12:11;100578.00;;;0.20;100.00
19789;BME280;10054;59.332;18.244;2023-01-29T02:14:41;100578.89;;;0.19;100.00
19789;BME280;10054;59.332;18.244;2023-01-29T02:17:14;100572.00;;;0.18;100.00
19789;BME280;10054;59.332;18.244;2023-01-29T02:20:24;100568.95;;;0.18;100.00
19789;BME280;10054;59.332;18.244;2023-01-29T02:23:15;100556.43;;;0.18;100.00
19789;BME280;10054;59.332;18.244;2023-01-29T02:28:40;100543.91;;;0.17;100.00
19789;BME280;10054;59.332;18.244;2023-01-29T02:34:16;100546.09;;;0.16;100.00
19789;BME280;10054;59.332;18.244;2023-01-29T02:36:57;100546.09;;;0.16;100.00
19789;BME280;10054;59.332;18.244;2023-01-29T02:39:34;100539.79;;;0.47;100.00
19789;BME280;10054;59.332;18.244;2023-01-29T02:44:59;100532.70;;;0.73;100.00
19789;BME280;10054;59.332;18.244;2023-01-29T02:47:40;100524.45;;;0.56;100.00
19789;BME280;10054;59.332;18.244;2023-01-29T02:50:28;100516.98;;;0.42;100.00
19789;BME280;10054;59.332;18.244;2023-01-29T02:53:14;100507.70;;;0.32;100.00
19789;BME280;10054;59.332;18.244;2023-01-29T02:55:54;100492.34;;;0.23;100.00
19789;BME280;10054;59.332;18.244;2023-01-29T02:58:37;100494.66;;;0.16;100.00
19789;BME280;10054;59.332;18.244;2023-01-29T03:01:16;100497.31;;;0.13;100.00
19789;BME280;10054;59.332;18.244;2023-01-29T03:03:44;100489.59;;;0.10;100.00
19789;BME280;10054;59.332;18.244;2023-01-29T03:06:20;100482.77;;;0.06;100.00
19789;BME280;10054;59.332;18.244;2023-01-29T03:09:13;100478.13;;;0.00;100.00
19789;BME280;10054;59.332;18.244;2023-01-29T03:11:47;100479.97;;;-0.03;100.00
19789;BME280;10054;59.332;18.244;2023-01-29T03:14:37;100490.84;;;-0.07;100.00
19789;BME280;10054;59.332;18.244;2023-01-29T03:17:29;100480.13;;;-0.11;100.00
19789;BME280;10054;59.332;18.244;2023-01-29T03:19:57;100469.41;;;-0.15;100.00
19789;BME280;10054;59.332;18.244;2023-01-29T03:22:27;100462.58;;;-0.19;100.00
19789;BME280;10054;59.332;18.244;2023-01-29T03:25:00;100461.80;;;-0.22;100.00
19789;BME280;10054;59.332;18.244;2023-01-29T03:27:54;100478.67;;;-0.24;100.00
19789;BME280;10054;59.332;18.244;2023-01-29T03:30:55;100473.55;;;-0.27;100.00
19789;BME280;10054;59.332;18.244;2023-01-29T03:33:58;100476.62;;;-0.29;100.00
19789;BME280;10054;59.332;18.244;2023-01-29T03:36:33;100464.98;;;-0.30;100.00
19789;BME280;10054;59.332;18.244;2023-01-29T03:39:07;100461.52;;;-0.29;100.00
19789;BME280;10054;59.332;18.244;2023-01-29T03:42:03;100474.05;;;-0.30;100.00
19789;BME280;10054;59.332;18.244;2023-01-29T03:44:41;100466.25;;;-0.29;100.00
19789;BME280;10054;59.332;18.244;2023-01-29T03:52:50;100450.70;;;0.10;100.00
19789;BME280;10054;59.332;18.244;2023-01-29T03:55:51;100456.16;;;-0.01;100.00
19789;BME280;10054;59.332;18.244;2023-01-29T04:00:40;100441.78;;;-0.16;100.00
19789;BME280;10054;59.332;18.244;2023-01-29T04:03:36;100449.66;;;-0.20;100.00
19789;BME280;10054;59.332;18.244;2023-01-29T04:06:48;100452.72;;;-0.22;100.00
19789;BME280;10054;59.332;18.244;2023-01-29T04:08:43;100446.72;;;-0.24;100.00
19789;BME280;10054;59.332;18.244;2023-01-29T04:11:09;100449.31;;;-0.24;100.00
19789;BME280;10054;59.332;18.244;2023-01-29T04:13:38;100444.53;;;-0.23;100.00
19789;BME280;10054;59.332;18.244;2023-01-29T04:16:10;100440.61;;;-0.22;100.00
19789;BME280;10054;59.332;18.244;2023-01-29T04:18:52;100441.02;;;-0.21;100.00
19789;BME280;10054;59.332;18.244;2023-01-29T04:21:24;100435.36;;;-0.19;100.00
19789;BME280;10054;59.332;18.244;2023-01-29T04:23:53;100435.74;;;-0.16;100.00
19789;BME280;10054;59.332;18.244;2023-01-29T04:26:43;100432.23;;;-0.14;100.00
19789;BME280;10054;59.332;18.244;2023-01-29T04:29:15;100428.27;;;-0.11;100.00
19789;BME280;10054;59.332;18.244;2023-01-29T04:34:32;100413.02;;;-0.05;100.00
19789;BME280;10054;59.332;18.244;2023-01-29T04:39:42;100417.29;;;-0.03;100.00
19789;BME280;10054;59.332;18.244;2023-01-29T04:44:50;100406.81;;;0.00;100.00
19789;BME280;10054;59.332;18.244;2023-01-29T04:50:22;100400.63;;;0.06;100.00
19789;BME280;10054;59.332;18.244;2023-01-29T04:52:50;100397.12;;;0.09;100.00
19789;BME280;10054;59.332;18.244;2023-01-29T04:55:28;100385.82;;;0.11;100.00
19789;BME280;10054;59.332;18.244;2023-01-29T05:00:51;100371.34;;;0.20;100.00
19789;BME280;10054;59.332;18.244;2023-01-29T05:03:22;100367.71;;;0.61;100.00
19789;BME280;10054;59.332;18.244;2023-01-29T05:05:53;100378.13;;;0.60;100.00
19789;BME280;10054;59.332;18.244;2023-01-29T05:08:24;100366.32;;;0.48;100.00
19789;BME280;10054;59.332;18.244;2023-01-29T05:10:56;100353.17;;;0.38;100.00
19789;BME280;10054;59.332;18.244;2023-01-29T05:13:27;100353.40;;;0.29;100.00
19789;BME280;10054;59.332;18.244;2023-01-29T05:16:01;100342.28;;;0.24;100.00
19789;BME280;10054;59.332;18.244;2023-01-29T05:18:31;100335.43;;;0.21;100.00
19789;BME280;10054;59.332;18.244;2023-01-29T05:21:03;100322.98;;;0.18;100.00
19789;BME280;10054;59.332;18.244;2023-01-29T05:23:32;100321.27;;;0.17;100.00
19789;BME280;10054;59.332;18.244;2023-01-29T05:26:03;100315.23;;;0.16;100.00
19789;BME280;10054;59.332;18.244;2023-01-29T05:28:32;100307.91;;;0.16;100.00
19789;BME280;10054;59.332;18.244;2023-01-29T05:31:01;100299.23;;;0.17;100.00
19789;BME280;10054;59.332;18.244;2023-01-29T05:33:30;100291.00;;;0.17;100.00
19789;BME280;10054;59.332;18.244;2023-01-29T05:35:59;100290.56;;;0.18;100.00
19789;BME280;10054;59.332;18.244;2023-01-29T05:38:28;100287.56;;;0.17;100.00
19789;BME280;10054;59.332;18.244;2023-01-29T05:40:58;100284.96;;;0.17;100.00
19789;BME280;10054;59.332;18.244;2023-01-29T05:43:26;100283.26;;;0.16;100.00
19789;BME280;10054;59.332;18.244;2023-01-29T05:45:59;100268.59;;;0.15;100.00
19789;BME280;10054;59.332;18.244;2023-01-29T05:48:29;100265.59;;;0.14;100.00
19789;BME280;10054;59.332;18.244;2023-01-29T05:51:02;100259.48;;;0.32;100.00
19789;BME280;10054;59.332;18.244;2023-01-29T05:53:31;100268.53;;;0.80;100.00
19789;BME280;10054;59.332;18.244;2023-01-29T05:56:01;100260.43;;;0.76;100.00
19789;BME280;10054;59.332;18.244;2023-01-29T05:58:31;100252.33;;;0.57;100.00
19789;BME280;10054;59.332;18.244;2023-01-29T06:01:11;100247.60;;;0.40;100.00
19789;BME280;10054;59.332;18.244;2023-01-29T06:03:36;100241.03;;;0.27;100.00
19789;BME280;10054;59.332;18.244;2023-01-29T06:06:06;100231.39;;;0.16;100.00
19789;BME280;10054;59.332;18.244;2023-01-29T06:08:34;100228.14;;;0.08;100.00
19789;BME280;10054;59.332;18.244;2023-01-29T06:11:03;100226.06;;;0.04;100.00
19789;BME280;10054;59.332;18.244;2023-01-29T06:13:31;100219.73;;;-0.01;100.00
19789;BME280;10054;59.332;18.244;2023-01-29T06:16:07;100223.70;;;-0.04;100.00
19789;BME280;10054;59.332;18.244;2023-01-29T06:18:37;100228.48;;;-0.05;100.00
19789;BME280;10054;59.332;18.244;2023-01-29T06:21:08;100232.82;;;-0.05;100.00
19789;BME280;10054;59.332;18.244;2023-01-29T06:23:37;100221.16;;;-0.05;100.00
19789;BME280;10054;59.332;18.244;2023-01-29T06:26:09;100216.41;;;-0.06;100.00
19789;BME280;10054;59.332;18.244;2023-01-29T06:28:37;100221.59;;;-0.06;100.00
19789;BME280;10054;59.332;18.244;2023-01-29T06:31:07;100229.82;;;-0.06;100.00
19789;BME280;10054;59.332;18.244;2023-01-29T06:33:35;100246.23;;;-0.06;100.00
19789;BME280;10054;59.332;18.244;2023-01-29T06:36:09;100255.27;;;-0.04;100.00
19789;BME280;10054;59.332;18.244;2023-01-29T06:38:38;100242.70;;;-0.03;100.00
19789;BME280;10054;59.332;18.244;2023-01-29T06:41:11;100237.93;;;-0.02;100.00
19789;BME280;10054;59.332;18.244;2023-01-29T06:43:45;100230.55;;;-0.01;100.00
19789;BME280;10054;59.332;18.244;2023-01-29T06:46:17;100225.38;;;-0.01;100.00
19789;BME280;10054;59.332;18.244;2023-01-29T06:48:47;100216.73;;;-0.02;100.00
19789;BME280;10054;59.332;18.244;2023-01-29T06:51:16;100208.52;;;-0.01;100.00
19789;BME280;10054;59.332;18.244;2023-01-29T06:53:44;100203.33;;;-0.01;100.00
19789;BME280;10054;59.332;18.244;2023-01-29T06:56:13;100199.44;;;-0.01;100.00
19789;BME280;10054;59.332;18.244;2023-01-29T06:58:42;100204.52;;;0.02;100.00
19789;BME280;10054;59.332;18.244;2023-01-29T07:01:11;100202.93;;;0.29;100.00
19789;BME280;10054;59.332;18.244;2023-01-29T07:03:39;100199.77;;;0.34;100.00
19789;BME280;10054;59.332;18.244;2023-01-29T07:06:09;100183.52;;;0.27;100.00
19789;BME280;10054;59.332;18.244;2023-01-29T07:08:38;100181.94;;;0.22;100.00
19789;BME280;10054;59.332;18.244;2023-01-29T07:11:07;100173.88;;;0.16;100.00
19789;BME280;10054;59.332;18.244;2023-01-29T07:13:36;100168.37;;;0.12;100.00
19789;BME280;10054;59.332;18.244;2023-01-29T07:16:05;100155.93;;;0.09;100.00
19789;BME280;10054;59.332;18.244;2023-01-29T07:18:34;100166.34;;;0.07;100.00
19789;BME280;10054;59.332;18.244;2023-01-29T07:21:04;100161.61;;;0.07;100.00
19789;BME280;10054;59.332;18.244;2023-01-29T07:23:34;100155.97;;;0.07;100.00
19789;BME280;10054;59.332;18.244;2023-01-29T07:26:04;100152.13;;;0.06;100.00
19789;BME280;10054;59.332;18.244;2023-01-29T07:28:37;100143.09;;;0.04;100.00
19789;BME280;10054;59.332;18.244;2023-01-29T07:31:06;100135.31;;;0.04;100.00
19789;BME280;10054;59.332;18.244;2023-01-29T07:33:35;100132.31;;;0.03;100.00
19789;BME280;10054;59.332;18.244;2023-01-29T07:36:09;100129.31;;;0.02;100.00
19789;BME280;10054;59.332;18.244;2023-01-29T07:38:38;100133.65;;;0.02;100.00
19789;BME280;10054;59.332;18.244;2023-01-29T07:41:06;100131.13;;;0.00;100.00
19789;BME280;10054;59.332;18.244;2023-01-29T07:43:37;100129.88;;;-0.02;100.00
19789;BME280;10054;59.332;18.244;2023-01-29T07:46:06;100119.95;;;-0.02;100.00
19789;BME280;10054;59.332;18.244;2023-01-29T07:48:34;100111.36;;;-0.04;100.00
19789;BME280;10054;59.332;18.244;2023-01-29T07:51:03;100116.51;;;-0.03;100.00
19789;BME280;10054;59.332;18.244;2023-01-29T07:53:32;100114.36;;;-0.03;100.00
19789;BME280;10054;59.332;18.244;2023-01-29T07:56:00;100120.36;;;-0.01;100.00
19789;BME280;10054;59.332;18.244;2023-01-29T07:58:29;100113.35;;;0.01;100.00
19789;BME280;10054;59.332;18.244;2023-01-29T08:00:58;100108.97;;;0.03;100.00
19789;BME280;10054;59.332;18.244;2023-01-29T08:03:26;100105.00;;;0.06;100.00
19789;BME280;10054;59.332;18.244;2023-01-29T08:05:56;100091.33;;;0.16;100.00
19789;BME280;10054;59.332;18.244;2023-01-29T08:08:25;100081.50;;;0.42;100.00
19789;BME280;10054;59.332;18.244;2023-01-29T08:10:53;100073.12;;;0.47;100.00
19789;BME280;10054;59.332;18.244;2023-01-29T08:13:22;100068.08;;;0.42;100.00
19789;BME280;10054;59.332;18.244;2023-01-29T08:15:51;100064.36;;;0.36;100.00
19789;BME280;10054;59.332;18.244;2023-01-29T08:18:19;100060.61;;;0.31;100.00
19789;BME280;10054;59.332;18.244;2023-01-29T08:20:48;100059.40;;;0.28;100.00
19789;BME280;10054;59.332;18.244;2023-01-29T08:23:16;100049.02;;;0.28;100.00
19789;BME280;10054;59.332;18.244;2023-01-29T08:25:46;100048.13;;;0.29;100.00
19789;BME280;10054;59.332;18.244;2023-01-29T08:28:15;100040.80;;;0.29;100.00
19789;BME280;10054;59.332;18.244;2023-01-29T08:30:44;100041.20;;;0.30;100.00
19789;BME280;10054;59.332;18.244;2023-01-29T08:33:12;100040.26;;;0.32;100.00
19789;BME280;10054;59.332;18.244;2023-01-29T08:35:41;100039.36;;;0.33;100.00
19789;BME280;10054;59.332;18.244;2023-01-29T08:38:09;100036.19;;;0.39;100.00
19789;BME280;10054;59.332;18.244;2023-01-29T08:40:38;100026.16;;;0.41;100.00
19789;BME280;10054;59.332;18.244;2023-01-29T08:43:09;100026.47;;;0.45;100.00
19789;BME280;10054;59.332;18.244;2023-01-29T08:45:42;100035.50;;;0.47;100.00
19789;BME280;10054;59.332;18.244;2023-01-29T08:48:11;100030.17;;;0.51;100.00
19789;BME280;10054;59.332;18.244;2023-01-29T08:50:40;100015.00;;;0.52;100.00
19789;BME280;10054;59.332;18.244;2023-01-29T08:53:08;100016.70;;;0.53;100.00
19789;BME280;10054;59.332;18.244;2023-01-29T08:55:38;100027.39;;;0.57;100.00
19789;BME280;10054;59.332;18.244;2023-01-29T08:58:09;100015.59;;;0.87;100.00
19789;BME280;10054;59.332;18.244;2023-01-29T09:00:38;100005.36;;;0.95;100.00
19789;BME280;10054;59.332;18.244;2023-01-29T09:03:09;99995.58;;;0.90;100.00
19789;BME280;10054;59.332;18.244;2023-01-29T09:05:38;99995.42;;;0.82;100.00
19789;BME280;10054;59.332;18.244;2023-01-29T09:08:08;99992.53;;;0.78;100.00
19789;BME280;10054;59.332;18.244;2023-01-29T09:10:36;99997.38;;;0.75;100.00
19789;BME280;10054;59.332;18.244;2023-01-29T09:13:05;99994.45;;;0.73;100.00
19789;BME280;10054;59.332;18.244;2023-01-29T09:15:34;99992.71;;;0.73;100.00
19789;BME280;10054;59.332;18.244;2023-01-29T09:18:03;99992.26;;;0.74;100.00
19789;BME280;10054;59.332;18.244;2023-01-29T09:20:32;99982.19;;;0.76;100.00
19789;BME280;10054;59.332;18.244;2023-01-29T09:23:06;99975.25;;;0.77;100.00
19789;BME280;10054;59.332;18.244;2023-01-29T09:25:35;99969.16;;;0.78;100.00
19789;BME280;10054;59.332;18.244;2023-01-29T09:28:04;99965.67;;;0.79;100.00
19789;BME280;10054;59.332;18.244;2023-01-29T09:30:32;99977.75;;;0.80;100.00
19789;BME280;10054;59.332;18.244;2023-01-29T09:33:03;99981.59;;;0.81;100.00
19789;BME280;10054;59.332;18.244;2023-01-29T09:35:32;99977.65;;;0.83;100.00
19789;BME280;10054;59.332;18.244;2023-01-29T09:38:01;99978.45;;;0.85;100.00
19789;BME280;10054;59.332;18.244;2023-01-29T09:40:36;99981.44;;;0.86;100.00
19789;BME280;10054;59.332;18.244;2023-01-29T09:43:12;99962.82;;;0.86;100.00
19789;BME280;10054;59.332;18.244;2023-01-29T09:45:35;99955.37;;;0.89;100.00
19789;BME280;10054;59.332;18.244;2023-01-29T09:48:07;99951.43;;;0.90;100.00
19789;BME280;10054;59.332;18.244;2023-01-29T09:50:42;99938.00;;;0.91;100.00
19789;BME280;10054;59.332;18.244;2023-01-29T09:53:17;99926.66;;;0.93;100.00
19789;BME280;10054;59.332;18.244;2023-01-29T09:55:58;99927.00;;;0.96;100.00
19789;BME280;10054;59.332;18.244;2023-01-29T09:58:38;99918.81;;;0.95;100.00
19789;BME280;10054;59.332;18.244;2023-01-29T10:14:51;99901.65;;;1.27;100.00
19789;BME280;10054;59.332;18.244;2023-01-29T10:17:45;99891.03;;;1.22;100.00
19789;BME280;10054;59.332;18.244;2023-01-29T10:20:57;99885.89;;;1.20;100.00
19789;BME280;10054;59.332;18.244;2023-01-29T10:25:38;99877.59;;;1.22;100.00
19789;BME280;10054;59.332;18.244;2023-01-29T10:28:26;99874.88;;;1.25;100.00
19789;BME280;10054;59.332;18.244;2023-01-29T10:31:00;99870.02;;;1.28;100.00
19789;BME280;10054;59.332;18.244;2023-01-29T10:33:42;99874.26;;;1.30;100.00
19789;BME280;10054;59.332;18.244;2023-01-29T10:36:20;99868.95;;;1.34;100.00
19789;BME280;10054;59.332;18.244;2023-01-29T10:38:46;99880.59;;;1.35;100.00
19789;BME280;10054;59.332;18.244;2023-01-29T10:47:29;99850.14;;;1.39;100.00
19789;BME280;10054;59.332;18.244;2023-01-29T10:50:03;99849.69;;;1.39;100.00
19789;BME280;10054;59.332;18.244;2023-01-29T10:58:12;99832.56;;;1.45;100.00
19789;BME280;10054;59.332;18.244;2023-01-29T11:00:39;99822.11;;;1.47;100.00
19789;BME280;10054;59.332;18.244;2023-01-29T11:03:32;99816.91;;;1.47;100.00
19789;BME280;10054;59.332;18.244;2023-01-29T11:11:35;99808.45;;;1.52;100.00
19789;BME280;10054;59.332;18.244;2023-01-29T11:14:04;99806.14;;;1.78;100.00
19789;BME280;10054;59.332;18.244;2023-01-29T11:16:43;99800.76;;;1.82;100.00
19789;BME280;10054;59.332;18.244;2023-01-29T11:19:13;99794.83;;;1.79;100.00
19789;BME280;10054;59.332;18.244;2023-01-29T11:22:01;99795.41;;;1.75;100.00
19789;BME280;10054;59.332;18.244;2023-01-29T11:24:30;99791.05;;;1.76;100.00
19789;BME280;10054;59.332;18.244;2023-01-29T11:26:59;99776.81;;;1.74;100.00
19789;BME280;10054;59.332;18.244;2023-01-29T11:29:44;99767.27;;;1.75;100.00
19789;BME280;10054;59.332;18.244;2023-01-29T11:35:00;99755.44;;;1.78;100.00
19789;BME280;10054;59.332;18.244;2023-01-29T11:37:37;99743.67;;;1.79;100.00
19789;BME280;10054;59.332;18.244;2023-01-29T11:42:54;99718.91;;;1.81;100.00
19789;BME280;10054;59.332;18.244;2023-01-29T11:47:59;99704.30;;;1.88;100.00
19789;BME280;10054;59.332;18.244;2023-01-29T11:50:30;99700.84;;;1.88;100.00
19789;BME280;10054;59.332;18.244;2023-01-29T11:52:59;99690.77;;;1.90;100.00
19789;BME280;10054;59.332;18.244;2023-01-29T11:55:30;99671.14;;;1.93;100.00
19789;BME280;10054;59.332;18.244;2023-01-29T11:58:11;99662.88;;;1.94;100.00
19789;BME280;10054;59.332;18.244;2023-01-29T12:00:38;99651.50;;;1.96;100.00
19789;BME280;10054;59.332;18.244;2023-01-29T12:03:14;99646.75;;;1.96;100.00
19789;BME280;10054;59.332;18.244;2023-01-29T12:06:04;99635.05;;;1.96;100.00
19789;BME280;10054;59.332;18.244;2023-01-29T12:08:37;99626.79;;;1.96;100.00
19789;BME280;10054;59.332;18.244;2023-01-29T12:13:38;99618.86;;;2.00;100.00
19789;BME280;10054;59.332;18.244;2023-01-29T12:21:38;99588.03;;;2.01;100.00
19789;BME280;10054;59.332;18.244;2023-01-29T12:24:40;99576.72;;;2.02;100.00
19789;BME280;10054;59.332;18.244;2023-01-29T12:27:14;99580.88;;;2.06;100.00
19789;BME280;10054;59.332;18.244;2023-01-29T12:30:03;99585.62;;;2.06;100.00
19789;BME280;10054;59.332;18.244;2023-01-29T12:38:19;99556.62;;;2.05;100.00
19789;BME280;10054;59.332;18.244;2023-01-29T12:40:53;99550.50;;;2.06;100.00
19789;BME280;10054;59.332;18.244;2023-01-29T12:43:29;99547.90;;;2.06;100.00
19789;BME280;10054;59.332;18.244;2023-01-29T12:45:58;99533.14;;;2.07;100.00
19789;BME280;10054;59.332;18.244;2023-01-29T12:48:31;99532.54;;;2.10;100.00
19789;BME280;10054;59.332;18.244;2023-01-29T12:51:15;99530.26;;;2.13;100.00
19789;BME280;10054;59.332;18.244;2023-01-29T12:53:59;99523.55;;;2.17;100.00
19789;BME280;10054;59.332;18.244;2023-01-29T12:56:26;99514.52;;;2.24;100.00
19789;BME280;10054;59.332;18.244;2023-01-29T12:58:55;99504.73;;;2.29;100.00
19789;BME280;10054;59.332;18.244;2023-01-29T13:01:30;99496.41;;;2.31;100.00
19789;BME280;10054;59.332;18.244;2023-01-29T13:04:02;99481.63;;;2.32;100.00
19789;BME280;10054;59.332;18.244;2023-01-29T13:06:37;99489.89;;;2.31;100.00
19789;BME280;10054;59.332;18.244;2023-01-29T13:09:05;99482.41;;;2.34;100.00
19789;BME280;10054;59.332;18.244;2023-01-29T13:11:40;99491.44;;;2.36;100.00
19789;BME280;10054;59.332;18.244;2023-01-29T13:17:41;99484.93;;;2.36;100.00
19789;BME280;10054;59.332;18.244;2023-01-29T13:20:27;99468.55;;;2.34;100.00
19789;BME280;10054;59.332;18.244;2023-01-29T13:22:58;99470.69;;;2.34;100.00
19789;BME280;10054;59.332;18.244;2023-01-29T13:25:27;99456.52;;;2.31;100.00
19789;BME280;10054;59.332;18.244;2023-01-29T13:27:55;99442.28;;;2.29;100.00
19789;BME280;10054;59.332;18.244;2023-01-29T13:30:27;99437.08;;;2.29;100.00
19789;BME280;10054;59.332;18.244;2023-01-29T13:32:59;99427.13;;;2.29;100.00
19789;BME280;10054;59.332;18.244;2023-01-29T13:35:39;99420.63;;;2.29;100.00
19789;BME280;10054;59.332;18.244;2023-01-29T13:38:21;99405.01;;;2.29;100.00
19789;BME280;10054;59.332;18.244;2023-01-29T13:40:49;99406.70;;;2.30;100.00
19789;BME280;10054;59.332;18.244;2023-01-29T13:43:20;99409.68;;;2.31;100.00
19789;BME280;10054;59.332;18.244;2023-01-29T13:45:51;99405.78;;;2.31;100.00
19789;BME280;10054;59.332;18.244;2023-01-29T13:50:59;99397.59;;;2.30;100.00
19789;BME280;10054;59.332;18.244;2023-01-29T13:53:29;99399.66;;;2.32;100.00
19789;BME280;10054;59.332;18.244;2023-01-29T13:58:51;99390.48;;;2.34;100.00
19789;BME280;10054;59.332;18.244;2023-01-29T14:01:56;99383.89;;;2.35;100.00
19789;BME280;10054;59.332;18.244;2023-01-29T14:03:50;99373.95;;;2.35;100.00
19789;BME280;10054;59.332;18.244;2023-01-29T14:06:40;99359.17;;;2.35;100.00
19789;BME280;10054;59.332;18.244;2023-01-29T14:12:03;99342.18;;;2.37;100.00
19789;BME280;10054;59.332;18.244;2023-01-29T14:17:26;99317.46;;;2.37;100.00
19789;BME280;10054;59.332;18.244;2023-01-29T14:20:03;99315.23;;;2.38;100.00
19789;BME280;10054;59.332;18.244;2023-01-29T14:22:32;99320.45;;;2.38;100.00
19789;BME280;10054;59.332;18.244;2023-01-29T14:25:03;99310.95;;;2.37;100.00
19789;BME280;10054;59.332;18.244;2023-01-29T14:27:33;99303.07;;;2.38;100.00
19789;BME280;10054;59.332;18.244;2023-01-29T14:30:09;99298.70;;;2.39;100.00
19789;BME280;10054;59.332;18.244;2023-01-29T14:32:39;99309.96;;;2.39;100.00
19789;BME280;10054;59.332;18.244;2023-01-29T14:35:23;99299.02;;;2.41;100.00
19789;BME280;10054;59.332;18.244;2023-01-29T14:37:53;99290.21;;;2.44;100.00
19789;BME280;10054;59.332;18.244;2023-01-29T14:40:25;99282.25;;;2.47;100.00
19789;BME280;10054;59.332;18.244;2023-01-29T14:43:16;99269.61;;;2.48;100.00
19789;BME280;10054;59.332;18.244;2023-01-29T14:45:47;99274.74;;;2.49;100.00
19789;BME280;10054;59.332;18.244;2023-01-29T14:48:37;99256.91;;;2.50;100.00
19789;BME280;10054;59.332;18.244;2023-01-29T14:51:16;99250.23;;;2.53;100.00
19789;BME280;10054;59.332;18.244;2023-01-29T14:56:53;99234.00;;;2.57;100.00